sensor_id;sensor_type;location;lat;lon;timestamp;pressure;altitude;pressure_sealevel;temperature;humidity
22743;BME280;11538;48.884;8.696;2023-09-08T00:01:59;98926.97;;;19.98;84.35
22743;BME280;11538;48.884;8.696;2023-09-08T00:04:26;98919.09;;;19.96;84.42
22743;BME280;11538;48.884;8.696;2023-09-08T00:06:53;98924.50;;;19.93;84.55
22743;BME280;11538;48.884;8.696;2023-09-08T00:09:20;98920.25;;;19.95;84.32
22743;BME280;11538;48.884;8.696;2023-09-08T00:11:47;98915.88;;;19.94;84.30
22743;BME280;11538;48.884;8.696;2023-09-08T00:14:14;98919.06;;;19.80;85.28
22743;BME280;11538;48.884;8.696;2023-09-08T00:16:41;98922.19;;;19.79;85.04
22743;BME280;11538;48.884;8.696;2023-09-08T00:19:12;98920.13;;;19.76;85.47
22743;BME280;11538;48.884;8.696;2023-09-08T00:21:39;98913.56;;;19.80;85.62
22743;BME280;11538;48.884;8.696;2023-09-08T00:24:07;98910.63;;;19.89;84.90
22743;BME280;11538;48.884;8.696;2023-09-08T00:26:34;98917.03;;;19.77;85.26
22743;BME280;11538;48.884;8.696;2023-09-08T00:29:01;98913.84;;;19.75;85.51
22743;BME280;11538;48.884;8.696;2023-09-08T00:31:28;98921.72;;;19.77;85.36
22743;BME280;11538;48.884;8.696;2023-09-08T00:33:54;98919.16;;;19.84;85.94
22743;BME280;11538;48.884;8.696;2023-09-08T00:36:22;98916.94;;;19.90;84.73
22743;BME280;11538;48.884;8.696;2023-09-08T00:38:49;98915.00;;;19.90;84.95
22743;BME280;11538;48.884;8.696;2023-09-08T00:41:16;98914.28;;;19.77;86.26
22743;BME280;11538;48.884;8.696;2023-09-08T00:43:43;98918.31;;;19.64;86.49
22743;BME280;11538;48.884;8.696;2023-09-08T00:46:11;98901.81;;;19.48;86.24
22743;BME280;11538;48.884;8.696;2023-09-08T00:48:39;98904.66;;;19.51;85.82
22743;BME280;11538;48.884;8.696;2023-09-08T00:51:07;98902.88;;;19.59;85.60
22743;BME280;11538;48.884;8.696;2023-09-08T00:53:37;98902.59;;;19.64;85.03
22743;BME280;11538;48.884;8.696;2023-09-08T00:56:04;98903.28;;;19.77;84.99
22743;BME280;11538;48.884;8.696;2023-09-08T00:58:32;98908.84;;;19.81;84.92
22743;BME280;11538;48.884;8.696;2023-09-08T01:00:59;98907.25;;;19.80;84.97
22743;BME280;11538;48.884;8.696;2023-09-08T01:03:27;98904.50;;;19.80;84.31
22743;BME280;11538;48.884;8.696;2023-09-08T01:05:55;98899.78;;;19.61;85.01
22743;BME280;11538;48.884;8.696;2023-09-08T01:08:22;98910.78;;;19.61;85.51
22743;BME280;11538;48.884;8.696;2023-09-08T01:10:49;98906.78;;;19.58;85.50
22743;BME280;11538;48.884;8.696;2023-09-08T01:13:16;98899.59;;;19.53;85.84
22743;BME280;11538;48.884;8.696;2023-09-08T01:15:43;98905.88;;;19.54;86.47
22743;BME280;11538;48.884;8.696;2023-09-08T01:18:10;98897.91;;;19.49;86.64
22743;BME280;11538;48.884;8.696;2023-09-08T01:21:44;98897.19;;;19.52;86.42
22743;BME280;11538;48.884;8.696;2023-09-08T01:26:43;98900.06;;;19.39;87.22
22743;BME280;11538;48.884;8.696;2023-09-08T01:29:10;98895.25;;;19.36;87.33
22743;BME280;11538;48.884;8.696;2023-09-08T01:31:39;98896.53;;;19.39;87.25
22743;BME280;11538;48.884;8.696;2023-09-08T01:34:08;98889.59;;;19.29;87.70
22743;BME280;11538;48.884;8.696;2023-09-08T01:36:36;98900.53;;;19.25;88.19
22743;BME280;11538;48.884;8.696;2023-09-08T01:39:03;98897.22;;;19.20;88.49
22743;BME280;11538;48.884;8.696;2023-09-08T01:41:30;98897.06;;;19.12;88.78
22743;BME280;11538;48.884;8.696;2023-09-08T01:44:00;98892.00;;;19.14;88.62
22743;BME280;11538;48.884;8.696;2023-09-08T01:46:31;98898.91;;;19.08;89.19
22743;BME280;11538;48.884;8.696;2023-09-08T01:48:59;98887.56;;;19.10;89.44
22743;BME280;11538;48.884;8.696;2023-09-08T01:51:25;98892.44;;;19.17;88.67
22743;BME280;11538;48.884;8.696;2023-09-08T01:53:52;98894.38;;;19.16;88.60
22743;BME280;11538;48.884;8.696;2023-09-08T01:56:19;98894.19;;;19.09;89.09
22743;BME280;11538;48.884;8.696;2023-09-08T01:58:46;98892.53;;;19.04;89.02
22743;BME280;11538;48.884;8.696;2023-09-08T02:01:13;98886.47;;;18.98;89.58
22743;BME280;11538;48.884;8.696;2023-09-08T02:03:55;98879.50;;;19.01;89.19
22743;BME280;11538;48.884;8.696;2023-09-08T02:06:22;98890.50;;;19.01;89.02
22743;BME280;11538;48.884;8.696;2023-09-08T02:08:49;98886.59;;;19.02;88.88
22743;BME280;11538;48.884;8.696;2023-09-08T02:11:16;98891.44;;;19.09;88.57
22743;BME280;11538;48.884;8.696;2023-09-08T02:13:43;98887.28;;;18.99;88.57
22743;BME280;11538;48.884;8.696;2023-09-08T02:16:16;98892.59;;;18.92;89.22
22743;BME280;11538;48.884;8.696;2023-09-08T02:18:44;98891.31;;;18.89;89.13
22743;BME280;11538;48.884;8.696;2023-09-08T02:21:12;98889.03;;;18.91;88.99
22743;BME280;11538;48.884;8.696;2023-09-08T02:23:39;98888.44;;;18.98;88.54
22743;BME280;11538;48.884;8.696;2023-09-08T02:26:06;98888.44;;;18.98;88.71
22743;BME280;11538;48.884;8.696;2023-09-08T02:28:32;98885.50;;;18.91;89.37
22743;BME280;11538;48.884;8.696;2023-09-08T02:31:00;98882.03;;;18.94;89.98
22743;BME280;11538;48.884;8.696;2023-09-08T02:33:27;98886.97;;;18.88;90.45
22743;BME280;11538;48.884;8.696;2023-09-08T02:36:05;98891.50;;;18.80;90.57
22743;BME280;11538;48.884;8.696;2023-09-08T02:38:35;98889.00;;;18.75;91.35
22743;BME280;11538;48.884;8.696;2023-09-08T02:41:02;98888.72;;;18.64;92.35
22743;BME280;11538;48.884;8.696;2023-09-08T02:43:29;98888.28;;;18.62;92.41
22743;BME280;11538;48.884;8.696;2023-09-08T02:45:56;98888.63;;;18.61;92.95
22743;BME280;11538;48.884;8.696;2023-09-08T02:48:25;98889.78;;;18.60;92.94
22743;BME280;11538;48.884;8.696;2023-09-08T02:50:51;98886.47;;;18.54;93.38
22743;BME280;11538;48.884;8.696;2023-09-08T02:53:20;98885.91;;;18.48;93.31
22743;BME280;11538;48.884;8.696;2023-09-08T02:55:48;98885.59;;;18.50;93.41
22743;BME280;11538;48.884;8.696;2023-09-08T02:58:15;98885.91;;;18.48;93.64
22743;BME280;11538;48.884;8.696;2023-09-08T03:00:42;98884.94;;;18.40;94.23
22743;BME280;11538;48.884;8.696;2023-09-08T03:03:09;98889.09;;;18.34;94.83
22743;BME280;11538;48.884;8.696;2023-09-08T03:05:36;98884.81;;;18.37;94.81
22743;BME280;11538;48.884;8.696;2023-09-08T03:08:06;98889.09;;;18.34;94.91
22743;BME280;11538;48.884;8.696;2023-09-08T03:10:33;98888.63;;;18.32;95.17
22743;BME280;11538;48.884;8.696;2023-09-08T03:13:01;98880.41;;;18.32;95.71
22743;BME280;11538;48.884;8.696;2023-09-08T03:15:28;98886.38;;;18.22;96.20
22743;BME280;11538;48.884;8.696;2023-09-08T03:17:56;98882.84;;;18.21;96.48
22743;BME280;11538;48.884;8.696;2023-09-08T03:20:25;98880.19;;;18.25;96.26
22743;BME280;11538;48.884;8.696;2023-09-08T03:22:53;98881.44;;;18.27;95.52
22743;BME280;11538;48.884;8.696;2023-09-08T03:25:21;98884.09;;;18.24;96.37
22743;BME280;11538;48.884;8.696;2023-09-08T03:27:48;98888.13;;;18.14;97.18
22743;BME280;11538;48.884;8.696;2023-09-08T03:30:15;98892.25;;;18.08;97.63
22743;BME280;11538;48.884;8.696;2023-09-08T03:32:42;98888.59;;;18.04;98.10
22743;BME280;11538;48.884;8.696;2023-09-08T03:35:09;98883.47;;;18.02;98.10
22743;BME280;11538;48.884;8.696;2023-09-08T03:37:36;98892.25;;;18.08;97.76
22743;BME280;11538;48.884;8.696;2023-09-08T03:40:03;98888.81;;;18.11;97.69
22743;BME280;11538;48.884;8.696;2023-09-08T03:42:34;98888.81;;;18.11;97.80
22743;BME280;11538;48.884;8.696;2023-09-08T03:45:01;98885.53;;;18.05;98.41
22743;BME280;11538;48.884;8.696;2023-09-08T03:47:28;98884.47;;;17.97;98.65
22743;BME280;11538;48.884;8.696;2023-09-08T03:49:55;98885.53;;;18.05;97.89
22743;BME280;11538;48.884;8.696;2023-09-08T03:52:24;98889.72;;;18.15;97.12
22743;BME280;11538;48.884;8.696;2023-09-08T03:54:51;98898.41;;;18.17;97.15
22743;BME280;11538;48.884;8.696;2023-09-08T03:57:18;98890.31;;;18.08;97.20
22743;BME280;11538;48.884;8.696;2023-09-08T03:59:45;98891.09;;;18.09;97.43
22743;BME280;11538;48.884;8.696;2023-09-08T04:02:12;98894.66;;;18.09;97.47
22743;BME280;11538;48.884;8.696;2023-09-08T04:04:39;98899.25;;;18.05;97.86
22743;BME280;11538;48.884;8.696;2023-09-08T04:07:05;98893.16;;;18.00;98.22
22743;BME280;11538;48.884;8.696;2023-09-08T04:09:32;98898.66;;;18.00;98.02
22743;BME280;11538;48.884;8.696;2023-09-08T04:12:01;98895.69;;;17.92;98.20
22743;BME280;11538;48.884;8.696;2023-09-08T04:14:28;98897.06;;;17.98;97.84
22743;BME280;11538;48.884;8.696;2023-09-08T04:16:56;98896.75;;;18.00;97.82
22743;BME280;11538;48.884;8.696;2023-09-08T04:19:23;98900.03;;;17.93;97.21
22743;BME280;11538;48.884;8.696;2023-09-08T04:21:51;98906.00;;;17.83;97.71
22743;BME280;11538;48.884;8.696;2023-09-08T04:24:17;98901.22;;;17.80;97.93
22743;BME280;11538;48.884;8.696;2023-09-08T04:26:44;98899.13;;;17.89;97.75
22743;BME280;11538;48.884;8.696;2023-09-08T04:29:11;98901.75;;;17.98;97.01
22743;BME280;11538;48.884;8.696;2023-09-08T04:31:38;98910.56;;;18.04;97.24
22743;BME280;11538;48.884;8.696;2023-09-08T04:34:05;98912.28;;;18.08;96.97
22743;BME280;11538;48.884;8.696;2023-09-08T04:36:32;98913.44;;;18.07;96.96
22743;BME280;11538;48.884;8.696;2023-09-08T04:38:59;98910.56;;;18.04;96.67
22743;BME280;11538;48.884;8.696;2023-09-08T04:41:26;98907.56;;;17.96;97.38
22743;BME280;11538;48.884;8.696;2023-09-08T04:43:53;98910.56;;;18.04;96.94
22743;BME280;11538;48.884;8.696;2023-09-08T04:46:20;98904.84;;;17.96;96.94
22743;BME280;11538;48.884;8.696;2023-09-08T04:48:47;98913.31;;;17.91;97.05
22743;BME280;11538;48.884;8.696;2023-09-08T04:51:14;98919.81;;;17.87;97.16
22743;BME280;11538;48.884;8.696;2023-09-08T04:53:43;98919.59;;;17.79;97.65
22743;BME280;11538;48.884;8.696;2023-09-08T04:56:10;98924.31;;;17.79;97.71
22743;BME280;11538;48.884;8.696;2023-09-08T04:58:37;98921.56;;;17.79;97.96
22743;BME280;11538;48.884;8.696;2023-09-08T05:01:04;98920.88;;;17.82;98.02
22743;BME280;11538;48.884;8.696;2023-09-08T05:03:32;98923.41;;;17.75;97.86
22743;BME280;11538;48.884;8.696;2023-09-08T05:05:59;98925.22;;;17.71;98.43
22743;BME280;11538;48.884;8.696;2023-09-08T05:08:28;98927.94;;;17.83;98.38
22743;BME280;11538;48.884;8.696;2023-09-08T05:10:55;98936.06;;;17.92;97.38
22743;BME280;11538;48.884;8.696;2023-09-08T05:13:22;98933.78;;;17.94;96.73
22743;BME280;11538;48.884;8.696;2023-09-08T05:15:57;98935.25;;;17.91;96.65
22743;BME280;11538;48.884;8.696;2023-09-08T05:18:27;98941.19;;;17.93;96.62
22743;BME280;11538;48.884;8.696;2023-09-08T05:20:54;98948.28;;;17.94;96.42
22743;BME280;11538;48.884;8.696;2023-09-08T05:23:21;98937.53;;;17.89;96.86
22743;BME280;11538;48.884;8.696;2023-09-08T05:25:48;98942.81;;;17.94;96.54
22743;BME280;11538;48.884;8.696;2023-09-08T05:28:15;98946.00;;;17.96;96.17
22743;BME280;11538;48.884;8.696;2023-09-08T05:30:42;98948.75;;;17.96;96.22
22743;BME280;11538;48.884;8.696;2023-09-08T05:33:09;98946.59;;;18.02;95.52
22743;BME280;11538;48.884;8.696;2023-09-08T05:35:36;98945.53;;;17.94;96.05
22743;BME280;11538;48.884;8.696;2023-09-08T05:38:03;98945.66;;;17.86;96.44
22743;BME280;11538;48.884;8.696;2023-09-08T05:40:31;98953.09;;;17.85;96.91
22743;BME280;11538;48.884;8.696;2023-09-08T05:42:58;98948.97;;;17.91;96.66
22743;BME280;11538;48.884;8.696;2023-09-08T05:45:25;98950.69;;;17.96;96.18
22743;BME280;11538;48.884;8.696;2023-09-08T05:47:52;98952.19;;;18.06;95.38
22743;BME280;11538;48.884;8.696;2023-09-08T05:50:20;98957.69;;;18.06;95.35
22743;BME280;11538;48.884;8.696;2023-09-08T05:52:48;98948.91;;;18.00;95.84
22743;BME280;11538;48.884;8.696;2023-09-08T05:55:15;98949.69;;;18.01;95.82
22743;BME280;11538;48.884;8.696;2023-09-08T05:57:42;98952.75;;;17.99;96.17
22743;BME280;11538;48.884;8.696;2023-09-08T06:00:09;98954.38;;;18.00;96.30
22743;BME280;11538;48.884;8.696;2023-09-08T06:02:36;98952.75;;;17.99;96.55
22743;BME280;11538;48.884;8.696;2023-09-08T06:05:04;98952.75;;;17.99;96.95
22743;BME280;11538;48.884;8.696;2023-09-08T06:07:31;98951.50;;;18.09;96.19
22743;BME280;11538;48.884;8.696;2023-09-08T06:09:57;98956.28;;;18.12;96.45
22743;BME280;11538;48.884;8.696;2023-09-08T06:12:24;98950.22;;;18.19;95.94
22743;BME280;11538;48.884;8.696;2023-09-08T06:14:51;98951.25;;;18.14;96.23
22743;BME280;11538;48.884;8.696;2023-09-08T06:17:18;98948.03;;;18.24;96.05
22743;BME280;11538;48.884;8.696;2023-09-08T06:19:45;98956.13;;;18.33;95.83
22743;BME280;11538;48.884;8.696;2023-09-08T06:22:12;98950.28;;;18.35;95.42
22743;BME280;11538;48.884;8.696;2023-09-08T06:24:39;98948.81;;;18.37;95.88
22743;BME280;11538;48.884;8.696;2023-09-08T06:27:07;98949.59;;;18.38;96.22
22743;BME280;11538;48.884;8.696;2023-09-08T06:29:34;98946.25;;;18.45;96.28
22743;BME280;11538;48.884;8.696;2023-09-08T06:32:01;98951.84;;;18.48;95.57
22743;BME280;11538;48.884;8.696;2023-09-08T06:34:27;98951.59;;;18.53;95.22
22743;BME280;11538;48.884;8.696;2023-09-08T06:36:55;98950.56;;;18.58;95.12
22743;BME280;11538;48.884;8.696;2023-09-08T06:39:22;98945.25;;;18.65;94.95
22743;BME280;11538;48.884;8.696;2023-09-08T06:41:49;98945.25;;;18.65;95.00
22743;BME280;11538;48.884;8.696;2023-09-08T06:44:16;98943.78;;;18.68;95.01
22743;BME280;11538;48.884;8.696;2023-09-08T06:46:42;98945.13;;;18.74;94.53
22743;BME280;11538;48.884;8.696;2023-09-08T06:49:09;98942.66;;;18.85;94.33
22743;BME280;11538;48.884;8.696;2023-09-08T06:51:36;98940.66;;;18.98;93.97
22743;BME280;11538;48.884;8.696;2023-09-08T06:54:04;98943.94;;;19.04;93.43
22743;BME280;11538;48.884;8.696;2023-09-08T06:56:31;98945.97;;;19.07;93.61
22743;BME280;11538;48.884;8.696;2023-09-08T06:58:58;98951.16;;;19.08;93.46
22743;BME280;11538;48.884;8.696;2023-09-08T07:01:25;98947.44;;;19.17;93.56
22743;BME280;11538;48.884;8.696;2023-09-08T07:03:52;98956.31;;;19.26;93.14
22743;BME280;11538;48.884;8.696;2023-09-08T07:06:19;98957.03;;;19.39;93.17
22743;BME280;11538;48.884;8.696;2023-09-08T07:08:49;98947.25;;;19.41;92.94
22743;BME280;11538;48.884;8.696;2023-09-08T07:11:17;98953.03;;;19.52;92.82
22743;BME280;11538;48.884;8.696;2023-09-08T07:13:44;98957.44;;;19.57;92.32
22743;BME280;11538;48.884;8.696;2023-09-08T07:16:11;98962.63;;;19.58;92.84
22743;BME280;11538;48.884;8.696;2023-09-08T07:18:38;98959.94;;;19.62;92.59
22743;BME280;11538;48.884;8.696;2023-09-08T07:21:05;98955.31;;;19.66;92.80
22743;BME280;11538;48.884;8.696;2023-09-08T07:23:34;98952.00;;;19.77;92.56
22743;BME280;11538;48.884;8.696;2023-09-08T07:26:03;98954.44;;;19.94;92.03
22743;BME280;11538;48.884;8.696;2023-09-08T07:28:30;98949.59;;;20.07;91.14
22743;BME280;11538;48.884;8.696;2023-09-08T07:31:05;98957.81;;;20.23;90.60
22743;BME280;11538;48.884;8.696;2023-09-08T07:33:32;98958.84;;;20.35;89.75
22743;BME280;11538;48.884;8.696;2023-09-08T07:36:07;98953.81;;;20.40;89.32
22743;BME280;11538;48.884;8.696;2023-09-08T07:38:34;98954.03;;;20.51;88.65
22743;BME280;11538;48.884;8.696;2023-09-08T07:41:02;98960.22;;;20.64;88.24
22743;BME280;11538;48.884;8.696;2023-09-08T07:43:30;98949.50;;;20.79;87.64
22743;BME280;11538;48.884;8.696;2023-09-08T07:45:57;98958.09;;;20.97;86.65
22743;BME280;11538;48.884;8.696;2023-09-08T07:48:24;98960.38;;;21.14;84.92
22743;BME280;11538;48.884;8.696;2023-09-08T07:50:52;98953.28;;;21.37;83.34
22743;BME280;11538;48.884;8.696;2023-09-08T07:53:19;98959.41;;;21.50;82.32
22743;BME280;11538;48.884;8.696;2023-09-08T07:55:45;98958.94;;;21.67;81.75
22743;BME280;11538;48.884;8.696;2023-09-08T07:58:12;98958.06;;;21.90;80.68
22743;BME280;11538;48.884;8.696;2023-09-08T08:00:39;98957.97;;;22.10;79.59
22743;BME280;11538;48.884;8.696;2023-09-08T08:03:06;98957.47;;;22.31;78.64
22743;BME280;11538;48.884;8.696;2023-09-08T08:05:33;98953.03;;;22.53;77.51
22743;BME280;11538;48.884;8.696;2023-09-08T08:08:01;98962.06;;;22.84;76.38
22743;BME280;11538;48.884;8.696;2023-09-08T08:10:28;98961.19;;;23.14;74.99
22743;BME280;11538;48.884;8.696;2023-09-08T08:12:55;98956.28;;;23.38;73.61
22743;BME280;11538;48.884;8.696;2023-09-08T08:15:33;98956.41;;;23.52;72.84
22743;BME280;11538;48.884;8.696;2023-09-08T08:18:01;98957.31;;;23.71;71.37
22743;BME280;11538;48.884;8.696;2023-09-08T08:20:28;98951.91;;;23.86;71.10
22743;BME280;11538;48.884;8.696;2023-09-08T08:22:55;98953.22;;;24.03;70.08
22743;BME280;11538;48.884;8.696;2023-09-08T08:25:22;98956.06;;;24.14;69.39
22743;BME280;11538;48.884;8.696;2023-09-08T08:27:49;98955.38;;;24.38;68.95
22743;BME280;11538;48.884;8.696;2023-09-08T08:30:16;98956.66;;;24.59;67.77
22743;BME280;11538;48.884;8.696;2023-09-08T08:32:44;98950.81;;;24.82;67.06
22743;BME280;11538;48.884;8.696;2023-09-08T08:35:12;98960.34;;;25.07;65.79
22743;BME280;11538;48.884;8.696;2023-09-08T08:37:40;98955.63;;;25.29;65.44
22743;BME280;11538;48.884;8.696;2023-09-08T08:40:10;98954.88;;;25.50;65.50
22743;BME280;11538;48.884;8.696;2023-09-08T08:42:41;98949.28;;;25.76;63.96
22743;BME280;11538;48.884;8.696;2023-09-08T08:45:10;98964.72;;;26.06;64.25
22743;BME280;11538;48.884;8.696;2023-09-08T08:47:39;98958.34;;;26.27;63.62
22743;BME280;11538;48.884;8.696;2023-09-08T08:50:09;98954.69;;;26.52;62.63
22743;BME280;11538;48.884;8.696;2023-09-08T08:52:38;98955.00;;;26.68;61.78
22743;BME280;11538;48.884;8.696;2023-09-08T08:55:06;98952.50;;;26.92;62.13
22743;BME280;11538;48.884;8.696;2023-09-08T08:57:38;98950.47;;;27.00;62.68
22743;BME280;11538;48.884;8.696;2023-09-08T09:00:09;98952.41;;;27.03;60.96
22743;BME280;11538;48.884;8.696;2023-09-08T09:02:42;98955.59;;;27.05;61.75
22743;BME280;11538;48.884;8.696;2023-09-08T09:05:13;98947.16;;;27.20;61.55
22743;BME280;11538;48.884;8.696;2023-09-08T09:07:44;98950.16;;;27.40;60.68
22743;BME280;11538;48.884;8.696;2023-09-08T09:10:11;98949.31;;;27.50;59.89
22743;BME280;11538;48.884;8.696;2023-09-08T09:12:38;98948.13;;;27.51;61.00
22743;BME280;11538;48.884;8.696;2023-09-08T09:15:06;98955.06;;;27.74;59.48
22743;BME280;11538;48.884;8.696;2023-09-08T09:17:36;98949.75;;;27.91;58.75
22743;BME280;11538;48.884;8.696;2023-09-08T09:20:15;98945.69;;;27.99;58.99
22743;BME280;11538;48.884;8.696;2023-09-08T09:22:45;98952.84;;;28.00;57.95
22743;BME280;11538;48.884;8.696;2023-09-08T09:25:28;98946.22;;;28.25;59.27
22743;BME280;11538;48.884;8.696;2023-09-08T09:28:00;98945.13;;;28.50;58.24
22743;BME280;11538;48.884;8.696;2023-09-08T09:30:28;98954.19;;;28.57;57.82
22743;BME280;11538;48.884;8.696;2023-09-08T09:33:12;98946.94;;;28.64;57.29
22743;BME280;11538;48.884;8.696;2023-09-08T09:35:42;98948.81;;;28.70;56.98
22743;BME280;11538;48.884;8.696;2023-09-08T09:38:10;98945.50;;;28.83;59.99
22743;BME280;11538;48.884;8.696;2023-09-08T09:40:38;98940.50;;;28.98;57.10
22743;BME280;11538;48.884;8.696;2023-09-08T09:43:07;98940.13;;;29.23;57.49
22743;BME280;11538;48.884;8.696;2023-09-08T09:45:36;98942.28;;;29.39;56.59
22743;BME280;11538;48.884;8.696;2023-09-08T09:48:05;98936.38;;;29.57;55.26
22743;BME280;11538;48.884;8.696;2023-09-08T09:50:35;98937.00;;;29.69;55.28
22743;BME280;11538;48.884;8.696;2023-09-08T09:53:12;98933.09;;;29.62;56.00
22743;BME280;11538;48.884;8.696;2023-09-08T09:55:43;98933.47;;;29.65;54.80
22743;BME280;11538;48.884;8.696;2023-09-08T09:58:11;98932.97;;;29.70;54.73
22743;BME280;11538;48.884;8.696;2023-09-08T10:00:39;98937.84;;;29.66;56.13
22743;BME280;11538;48.884;8.696;2023-09-08T10:03:08;98932.56;;;29.91;56.35
22743;BME280;11538;48.884;8.696;2023-09-08T10:05:37;98934.09;;;29.96;54.10
22743;BME280;11538;48.884;8.696;2023-09-08T10:08:04;98932.06;;;29.97;54.07
22743;BME280;11538;48.884;8.696;2023-09-08T10:10:32;98934.56;;;30.15;57.53
22743;BME280;11538;48.884;8.696;2023-09-08T10:13:06;98927.09;;;30.28;54.22
22743;BME280;11538;48.884;8.696;2023-09-08T10:15:34;98927.28;;;30.58;54.87
22743;BME280;11538;48.884;8.696;2023-09-08T10:18:05;98925.88;;;30.86;53.37
22743;BME280;11538;48.884;8.696;2023-09-08T10:20:34;98927.03;;;31.05;53.16
22743;BME280;11538;48.884;8.696;2023-09-08T10:23:30;98926.56;;;30.90;51.42
22743;BME280;11538;48.884;8.696;2023-09-08T10:26:05;98923.44;;;31.05;51.79
22743;BME280;11538;48.884;8.696;2023-09-08T10:28:35;98922.03;;;30.97;52.42
22743;BME280;11538;48.884;8.696;2023-09-08T10:31:04;98927.41;;;31.24;52.04
22743;BME280;11538;48.884;8.696;2023-09-08T10:33:34;98924.53;;;31.28;49.67
22743;BME280;11538;48.884;8.696;2023-09-08T10:36:03;98932.81;;;31.15;50.22
22743;BME280;11538;48.884;8.696;2023-09-08T10:38:33;98924.09;;;31.29;51.28
22743;BME280;11538;48.884;8.696;2023-09-08T10:41:27;98922.31;;;31.35;50.16
22743;BME280;11538;48.884;8.696;2023-09-08T10:43:56;98926.16;;;31.58;53.22
22743;BME280;11538;48.884;8.696;2023-09-08T10:46:27;98927.72;;;31.76;49.45
22743;BME280;11538;48.884;8.696;2023-09-08T10:49:01;98927.78;;;31.89;49.15
22743;BME280;11538;48.884;8.696;2023-09-08T10:51:30;98914.09;;;31.91;49.47
22743;BME280;11538;48.884;8.696;2023-09-08T10:53:58;98913.66;;;31.92;50.41
22743;BME280;11538;48.884;8.696;2023-09-08T10:56:53;98918.25;;;32.29;48.64
22743;BME280;11538;48.884;8.696;2023-09-08T10:59:28;98919.91;;;32.56;49.11
22743;BME280;11538;48.884;8.696;2023-09-08T11:01:55;98917.44;;;32.71;47.14
22743;BME280;11538;48.884;8.696;2023-09-08T11:04:24;98920.47;;;32.63;49.33
22743;BME280;11538;48.884;8.696;2023-09-08T11:06:52;98912.03;;;32.76;47.33
22743;BME280;11538;48.884;8.696;2023-09-08T11:09:20;98917.81;;;32.99;47.49
22743;BME280;11538;48.884;8.696;2023-09-08T11:11:46;98906.66;;;33.08;45.76
22743;BME280;11538;48.884;8.696;2023-09-08T11:14:14;98911.13;;;32.79;46.21
22743;BME280;11538;48.884;8.696;2023-09-08T11:16:42;98920.25;;;32.84;46.30
22743;BME280;11538;48.884;8.696;2023-09-08T11:19:10;98911.28;;;33.15;45.94
22743;BME280;11538;48.884;8.696;2023-09-08T11:21:37;98909.09;;;33.45;45.06
22743;BME280;11538;48.884;8.696;2023-09-08T11:24:08;98910.06;;;33.86;43.75
22743;BME280;11538;48.884;8.696;2023-09-08T11:26:37;98912.28;;;34.04;42.87
22743;BME280;11538;48.884;8.696;2023-09-08T11:29:05;98915.69;;;34.31;42.40
22743;BME280;11538;48.884;8.696;2023-09-08T11:31:32;98909.34;;;34.62;41.77
22743;BME280;11538;48.884;8.696;2023-09-08T11:33:59;98897.53;;;34.85;40.55
22743;BME280;11538;48.884;8.696;2023-09-08T11:36:26;98900.31;;;35.17;39.81
22743;BME280;11538;48.884;8.696;2023-09-08T11:38:55;98905.16;;;35.17;40.34
22743;BME280;11538;48.884;8.696;2023-09-08T11:41:22;98905.81;;;35.30;39.49
22743;BME280;11538;48.884;8.696;2023-09-08T11:43:51;98905.41;;;35.60;39.63
22743;BME280;11538;48.884;8.696;2023-09-08T11:46:19;98901.47;;;35.57;38.60
22743;BME280;11538;48.884;8.696;2023-09-08T11:48:47;98899.91;;;35.75;39.12
22743;BME280;11538;48.884;8.696;2023-09-08T11:51:14;98897.22;;;35.90;38.25
22743;BME280;11538;48.884;8.696;2023-09-08T11:53:42;98894.72;;;36.10;38.03
22743;BME280;11538;48.884;8.696;2023-09-08T11:56:09;98901.09;;;36.39;37.51
22743;BME280;11538;48.884;8.696;2023-09-08T11:58:36;98890.25;;;36.56;36.44
22743;BME280;11538;48.884;8.696;2023-09-08T12:01:05;98902.84;;;36.79;35.94
22743;BME280;11538;48.884;8.696;2023-09-08T12:03:32;98896.66;;;36.90;35.21
22743;BME280;11538;48.884;8.696;2023-09-08T12:05:59;98905.97;;;36.81;35.89
22743;BME280;11538;48.884;8.696;2023-09-08T12:08:26;98892.50;;;36.76;36.70
22743;BME280;11538;48.884;8.696;2023-09-08T12:10:54;98900.88;;;36.95;36.71
22743;BME280;11538;48.884;8.696;2023-09-08T12:13:23;98903.28;;;36.87;35.80
22743;BME280;11538;48.884;8.696;2023-09-08T12:15:50;98898.97;;;37.01;35.72
22743;BME280;11538;48.884;8.696;2023-09-08T12:18:17;98896.28;;;37.55;34.71
22743;BME280;11538;48.884;8.696;2023-09-08T12:20:45;98895.13;;;37.38;34.60
22743;BME280;11538;48.884;8.696;2023-09-08T12:23:21;98892.34;;;37.13;35.18
22743;BME280;11538;48.884;8.696;2023-09-08T12:25:50;98883.88;;;37.04;35.40
22743;BME280;11538;48.884;8.696;2023-09-08T12:28:20;98886.84;;;37.10;34.95
22743;BME280;11538;48.884;8.696;2023-09-08T12:30:51;98885.34;;;37.24;34.80
22743;BME280;11538;48.884;8.696;2023-09-08T12:33:20;98877.75;;;37.54;34.43
22743;BME280;11538;48.884;8.696;2023-09-08T12:35:49;98891.53;;;38.01;33.25
22743;BME280;11538;48.884;8.696;2023-09-08T12:38:18;98880.94;;;38.31;32.82
22743;BME280;11538;48.884;8.696;2023-09-08T12:40:45;98891.41;;;38.25;33.04
22743;BME280;11538;48.884;8.696;2023-09-08T12:43:12;98878.69;;;37.91;33.35
22743;BME280;11538;48.884;8.696;2023-09-08T12:45:57;98872.06;;;37.94;33.03
22743;BME280;11538;48.884;8.696;2023-09-08T12:48:24;98866.59;;;37.90;33.10
22743;BME280;11538;48.884;8.696;2023-09-08T12:50:52;98863.47;;;37.88;33.18
22743;BME280;11538;48.884;8.696;2023-09-08T12:53:19;98871.66;;;37.86;33.46
22743;BME280;11538;48.884;8.696;2023-09-08T12:55:47;98860.44;;;37.92;33.69
22743;BME280;11538;48.884;8.696;2023-09-08T12:58:15;98867.69;;;38.23;33.39
22743;BME280;11538;48.884;8.696;2023-09-08T13:00:43;98865.06;;;38.49;32.97
22743;BME280;11538;48.884;8.696;2023-09-08T13:03:10;98856.03;;;38.66;32.47
22743;BME280;11538;48.884;8.696;2023-09-08T13:05:37;98858.56;;;38.64;32.84
22743;BME280;11538;48.884;8.696;2023-09-08T13:08:06;98859.31;;;38.79;31.89
22743;BME280;11538;48.884;8.696;2023-09-08T13:10:33;98857.06;;;38.68;31.73